sensor_id;sensor_type;location;lat;lon;timestamp;P1;durP1;ratioP1;P2;durP2;ratioP2
55545;SDS011;44768;50.298;127.520;2022-08-30T00:01:24;20.65;;;3.20;;
55545;SDS011;44768;50.298;127.520;2022-08-30T00:06:26;13.38;;;3.03;;
55545;SDS011;44768;50.298;127.520;2022-08-30T00:11:28;20.30;;;3.33;;
55545;SDS011;44768;50.298;127.520;2022-08-30T00:16:30;28.20;;;3.63;;
55545;SDS011;44768;50.298;127.520;2022-08-30T00:21:31;20.33;;;2.05;;
55545;SDS011;44768;50.298;127.520;2022-08-30T00:26:32;15.23;;;2.25;;
55545;SDS011;44768;50.298;127.520;2022-08-30T00:31:33;46.60;;;7.30;;
55545;SDS011;44768;50.298;127.520;2022-08-30T00:36:35;15.27;;;2.50;;
55545;SDS011;44768;50.298;127.520;2022-08-30T00:41:37;11.95;;;2.40;;
55545;SDS011;44768;50.298;127.520;2022-08-30T00:46:39;18.38;;;2.15;;
55545;SDS011;44768;50.298;127.520;2022-08-30T00:51:40;17.00;;;4.03;;
55545;SDS011;44768;50.298;127.520;2022-08-30T00:56:41;33.80;;;5.97;;
55545;SDS011;44768;50.298;127.520;2022-08-30T01:01:43;10.35;;;1.90;;
55545;SDS011;44768;50.298;127.520;2022-08-30T01:06:44;10.20;;;1.88;;
55545;SDS011;44768;50.298;127.520;2022-08-30T01:11:46;63.20;;;13.20;;
55545;SDS011;44768;50.298;127.520;2022-08-30T01:16:48;35.25;;;6.93;;
55545;SDS011;44768;50.298;127.520;2022-08-30T01:21:54;8.63;;;2.30;;
55545;SDS011;44768;50.298;127.520;2022-08-30T01:26:57;12.10;;;2.03;;
55545;SDS011;44768;50.298;127.520;2022-08-30T01:31:58;10.13;;;2.63;;
55545;SDS011;44768;50.298;127.520;2022-08-30T01:36:59;4.13;;;1.95;;
55545;SDS011;44768;50.298;127.520;2022-08-30T01:42:02;6.68;;;2.17;;
55545;SDS011;44768;50.298;127.520;2022-08-30T01:47:03;11.75;;;2.40;;
55545;SDS011;44768;50.298;127.520;2022-08-30T01:52:05;10.18;;;3.08;;
55545;SDS011;44768;50.298;127.520;2022-08-30T01:57:08;18.17;;;3.97;;
55545;SDS011;44768;50.298;127.520;2022-08-30T02:02:09;25.38;;;4.70;;
55545;SDS011;44768;50.298;127.520;2022-08-30T02:07:10;15.32;;;2.38;;
55545;SDS011;44768;50.298;127.520;2022-08-30T02:12:12;13.98;;;2.40;;
55545;SDS011;44768;50.298;127.520;2022-08-30T02:17:14;6.72;;;2.20;;
55545;SDS011;44768;50.298;127.520;2022-08-30T02:22:16;24.40;;;4.55;;
55545;SDS011;44768;50.298;127.520;2022-08-30T02:27:18;15.23;;;3.92;;
55545;SDS011;44768;50.298;127.520;2022-08-30T02:32:20;24.25;;;3.92;;
55545;SDS011;44768;50.298;127.520;2022-08-30T02:37:21;28.63;;;7.10;;
55545;SDS011;44768;50.298;127.520;2022-08-30T02:42:23;20.63;;;4.15;;
55545;SDS011;44768;50.298;127.520;2022-08-30T02:47:24;19.65;;;3.72;;
55545;SDS011;44768;50.298;127.520;2022-08-30T02:52:25;16.25;;;3.60;;
55545;SDS011;44768;50.298;127.520;2022-08-30T02:57:27;11.95;;;2.92;;
55545;SDS011;44768;50.298;127.520;2022-08-30T03:02:28;35.25;;;21.08;;
55545;SDS011;44768;50.298;127.520;2022-08-30T03:07:29;14.40;;;3.15;;
55545;SDS011;44768;50.298;127.520;2022-08-30T03:12:31;8.45;;;2.78;;
55545;SDS011;44768;50.298;127.520;2022-08-30T03:17:34;7.72;;;2.40;;
55545;SDS011;44768;50.298;127.520;2022-08-30T03:22:35;13.73;;;2.58;;
55545;SDS011;44768;50.298;127.520;2022-08-30T03:27:36;8.65;;;2.85;;
55545;SDS011;44768;50.298;127.520;2022-08-30T03:32:38;7.35;;;2.30;;
55545;SDS011;44768;50.298;127.520;2022-08-30T03:37:39;5.30;;;2.55;;
55545;SDS011;44768;50.298;127.520;2022-08-30T03:42:41;6.97;;;2.30;;
55545;SDS011;44768;50.298;127.520;2022-08-30T03:47:42;13.82;;;3.10;;
55545;SDS011;44768;50.298;127.520;2022-08-30T03:52:44;13.30;;;3.28;;
55545;SDS011;44768;50.298;127.520;2022-08-30T03:57:45;8.98;;;2.42;;
55545;SDS011;44768;50.298;127.520;2022-08-30T04:02:46;8.85;;;3.67;;
55545;SDS011;44768;50.298;127.520;2022-08-30T04:07:48;10.38;;;3.40;;
55545;SDS011;44768;50.298;127.520;2022-08-30T04:12:50;10.27;;;2.50;;
55545;SDS011;44768;50.298;127.520;2022-08-30T04:17:51;11.63;;;2.35;;
55545;SDS011;44768;50.298;127.520;2022-08-30T04:22:54;6.88;;;2.72;;
55545;SDS011;44768;50.298;127.520;2022-08-30T04:27:55;16.35;;;2.90;;
55545;SDS011;44768;50.298;127.520;2022-08-30T04:32:57;9.52;;;3.20;;
55545;SDS011;44768;50.298;127.520;2022-08-30T04:37:58;8.85;;;2.58;;
55545;SDS011;44768;50.298;127.520;2022-08-30T04:42:59;10.63;;;3.05;;
55545;SDS011;44768;50.298;127.520;2022-08-30T04:48:00;13.18;;;3.15;;
55545;SDS011;44768;50.298;127.520;2022-08-30T04:53:02;14.98;;;3.25;;
55545;SDS011;44768;50.298;127.520;2022-08-30T04:58:03;12.23;;;2.97;;
55545;SDS011;44768;50.298;127.520;2022-08-30T05:03:05;18.65;;;3.05;;
55545;SDS011;44768;50.298;127.520;2022-08-30T05:08:07;11.75;;;3.50;;
55545;SDS011;44768;50.298;127.520;2022-08-30T05:13:09;6.47;;;3.03;;
55545;SDS011;44768;50.298;127.520;2022-08-30T05:18:11;5.93;;;3.30;;
55545;SDS011;44768;50.298;127.520;2022-08-30T05:23:13;13.77;;;3.47;;
55545;SDS011;44768;50.298;127.520;2022-08-30T05:28:15;19.25;;;3.65;;
55545;SDS011;44768;50.298;127.520;2022-08-30T05:33:16;6.00;;;2.42;;
55545;SDS011;44768;50.298;127.520;2022-08-30T05:38:17;10.52;;;2.40;;
55545;SDS011;44768;50.298;127.520;2022-08-30T05:43:18;11.18;;;2.60;;
55545;SDS011;44768;50.298;127.520;2022-08-30T05:48:23;15.60;;;2.83;;
55545;SDS011;44768;50.298;127.520;2022-08-30T05:53:25;12.98;;;3.05;;
55545;SDS011;44768;50.298;127.520;2022-08-30T05:58:26;11.45;;;3.10;;
55545;SDS011;44768;50.298;127.520;2022-08-30T06:03:27;26.38;;;4.18;;
55545;SDS011;44768;50.298;127.520;2022-08-30T06:08:28;25.50;;;4.30;;
55545;SDS011;44768;50.298;127.520;2022-08-30T06:13:30;25.95;;;4.18;;
55545;SDS011;44768;50.298;127.520;2022-08-30T06:18:32;18.42;;;3.90;;
55545;SDS011;44768;50.298;127.520;2022-08-30T06:23:33;17.73;;;4.38;;
55545;SDS011;44768;50.298;127.520;2022-08-30T06:28:35;16.98;;;4.88;;
55545;SDS011;44768;50.298;127.520;2022-08-30T06:33:36;20.83;;;4.75;;
55545;SDS011;44768;50.298;127.520;2022-08-30T06:38:38;14.15;;;4.53;;
55545;SDS011;44768;50.298;127.520;2022-08-30T06:43:40;18.88;;;5.60;;
55545;SDS011;44768;50.298;127.520;2022-08-30T06:48:41;22.40;;;5.75;;
55545;SDS011;44768;50.298;127.520;2022-08-30T06:53:45;20.83;;;6.40;;
55545;SDS011;44768;50.298;127.520;2022-08-30T06:58:47;32.88;;;6.18;;
55545;SDS011;44768;50.298;127.520;2022-08-30T07:03:48;24.17;;;6.72;;
55545;SDS011;44768;50.298;127.520;2022-08-30T07:08:51;33.00;;;6.80;;
55545;SDS011;44768;50.298;127.520;2022-08-30T07:13:53;19.75;;;6.53;;
55545;SDS011;44768;50.298;127.520;2022-08-30T07:18:54;12.40;;;5.55;;
55545;SDS011;44768;50.298;127.520;2022-08-30T07:23:56;10.65;;;5.55;;
55545;SDS011;44768;50.298;127.520;2022-08-30T07:28:58;22.13;;;5.60;;
55545;SDS011;44768;50.298;127.520;2022-08-30T07:33:59;12.48;;;7.90;;
55545;SDS011;44768;50.298;127.520;2022-08-30T07:39:00;20.42;;;6.00;;
55545;SDS011;44768;50.298;127.520;2022-08-30T07:44:02;16.17;;;5.45;;
55545;SDS011;44768;50.298;127.520;2022-08-30T07:49:03;15.88;;;5.03;;
55545;SDS011;44768;50.298;127.520;2022-08-30T07:54:05;25.75;;;5.25;;
55545;SDS011;44768;50.298;127.520;2022-08-30T07:59:06;21.95;;;5.93;;
55545;SDS011;44768;50.298;127.520;2022-08-30T08:04:07;26.95;;;6.65;;
55545;SDS011;44768;50.298;127.520;2022-08-30T08:09:09;28.70;;;6.82;;
55545;SDS011;44768;50.298;127.520;2022-08-30T08:14:10;28.60;;;7.03;;
55545;SDS011;44768;50.298;127.520;2022-08-30T08:19:12;35.50;;;7.50;;
55545;SDS011;44768;50.298;127.520;2022-08-30T08:24:13;26.48;;;7.45;;
55545;SDS011;44768;50.298;127.520;2022-08-30T08:29:14;35.88;;;15.13;;
55545;SDS011;44768;50.298;127.520;2022-08-30T08:34:16;28.05;;;8.73;;
55545;SDS011;44768;50.298;127.520;2022-08-30T08:39:18;27.20;;;8.30;;
55545;SDS011;44768;50.298;127.520;2022-08-30T08:49:20;34.00;;;9.00;;
55545;SDS011;44768;50.298;127.520;2022-08-30T08:54:43;20.95;;;8.52;;
55545;SDS011;44768;50.298;127.520;2022-08-30T08:59:46;18.77;;;7.72;;
55545;SDS011;44768;50.298;127.520;2022-08-30T09:04:48;12.80;;;7.65;;
55545;SDS011;44768;50.298;127.520;2022-08-30T09:09:50;23.35;;;7.90;;
55545;SDS011;44768;50.298;127.520;2022-08-30T09:14:53;20.00;;;8.05;;
55545;SDS011;44768;50.298;127.520;2022-08-30T09:25:06;32.78;;;8.85;;
55545;SDS011;44768;50.298;127.520;2022-08-30T09:35:19;19.55;;;7.65;;
55545;SDS011;44768;50.298;127.520;2022-08-30T09:40:25;24.15;;;7.75;;
55545;SDS011;44768;50.298;127.520;2022-08-30T09:45:29;19.13;;;8.27;;
55545;SDS011;44768;50.298;127.520;2022-08-30T09:50:31;21.58;;;8.40;;
55545;SDS011;44768;50.298;127.520;2022-08-30T09:55:39;24.55;;;8.85;;
55545;SDS011;44768;50.298;127.520;2022-08-30T10:00:47;34.67;;;9.68;;
55545;SDS011;44768;50.298;127.520;2022-08-30T10:06:54;23.60;;;9.43;;
55545;SDS011;44768;50.298;127.520;2022-08-30T10:11:27;16.05;;;8.23;;
55545;SDS011;44768;50.298;127.520;2022-08-30T10:21:36;14.15;;;8.68;;
55545;SDS011;44768;50.298;127.520;2022-08-30T10:26:43;25.20;;;9.52;;
55545;SDS011;44768;50.298;127.520;2022-08-30T10:37:13;15.50;;;8.77;;
55545;SDS011;44768;50.298;127.520;2022-08-30T10:42:20;19.38;;;8.27;;
55545;SDS011;44768;50.298;127.520;2022-08-30T10:57:25;21.75;;;10.18;;
55545;SDS011;44768;50.298;127.520;2022-08-30T11:12:49;40.35;;;14.02;;
55545;SDS011;44768;50.298;127.520;2022-08-30T11:18:00;34.35;;;12.93;;
55545;SDS011;44768;50.298;127.520;2022-08-30T11:23:45;21.95;;;11.93;;
55545;SDS011;44768;50.298;127.520;2022-08-30T11:33:42;17.77;;;10.48;;
55545;SDS011;44768;50.298;127.520;2022-08-30T11:48:59;16.02;;;8.75;;
55545;SDS011;44768;50.298;127.520;2022-08-30T11:59:18;10.32;;;6.97;;
55545;SDS011;44768;50.298;127.520;2022-08-30T12:14:33;13.70;;;6.68;;
55545;SDS011;44768;50.298;127.520;2022-08-30T12:19:35;19.50;;;15.07;;
55545;SDS011;44768;50.298;127.520;2022-08-30T12:24:38;19.58;;;7.65;;
55545;SDS011;44768;50.298;127.520;2022-08-30T12:29:48;8.52;;;5.97;;
55545;SDS011;44768;50.298;127.520;2022-08-30T12:34:56;10.80;;;5.45;;
55545;SDS011;44768;50.298;127.520;2022-08-30T12:40:03;12.27;;;6.60;;
55545;SDS011;44768;50.298;127.520;2022-08-30T12:45:15;10.55;;;7.10;;
55545;SDS011;44768;50.298;127.520;2022-08-30T12:50:22;9.52;;;7.20;;
55545;SDS011;44768;50.298;127.520;2022-08-30T12:55:26;15.93;;;8.27;;
55545;SDS011;44768;50.298;127.520;2022-08-30T13:06:02;14.23;;;9.63;;
55545;SDS011;44768;50.298;127.520;2022-08-30T13:10:58;18.02;;;11.20;;
55545;SDS011;44768;50.298;127.520;2022-08-30T13:16:33;17.05;;;11.57;;
55545;SDS011;44768;50.298;127.520;2022-08-30T13:21:29;26.48;;;11.80;;
55545;SDS011;44768;50.298;127.520;2022-08-30T13:26:34;24.38;;;14.55;;
55545;SDS011;44768;50.298;127.520;2022-08-30T13:31:36;24.42;;;16.90;;
55545;SDS011;44768;50.298;127.520;2022-08-30T13:36:50;37.92;;;25.30;;
55545;SDS011;44768;50.298;127.520;2022-08-30T13:41:53;39.88;;;28.85;;
55545;SDS011;44768;50.298;127.520;2022-08-30T13:46:54;45.05;;;28.77;;
55545;SDS011;44768;50.298;127.520;2022-08-30T13:51:59;52.20;;;33.25;;
55545;SDS011;44768;50.298;127.520;2022-08-30T13:57:00;42.78;;;30.10;;
55545;SDS011;44768;50.298;127.520;2022-08-30T14:02:02;50.08;;;33.55;;
55545;SDS011;44768;50.298;127.520;2022-08-30T14:12:04;37.95;;;25.90;;
55545;SDS011;44768;50.298;127.520;2022-08-30T14:17:06;36.85;;;24.98;;
55545;SDS011;44768;50.298;127.520;2022-08-30T14:22:07;38.42;;;24.38;;
55545;SDS011;44768;50.298;127.520;2022-08-30T14:27:08;32.00;;;22.73;;
55545;SDS011;44768;50.298;127.520;2022-08-30T14:32:10;33.70;;;21.77;;
55545;SDS011;44768;50.298;127.520;2022-08-30T14:37:12;39.38;;;20.75;;
55545;SDS011;44768;50.298;127.520;2022-08-30T14:42:14;19.83;;;13.88;;
55545;SDS011;44768;50.298;127.520;2022-08-30T14:47:16;14.10;;;10.68;;
55545;SDS011;44768;50.298;127.520;2022-08-30T14:52:17;19.25;;;10.02;;
55545;SDS011;44768;50.298;127.520;2022-08-30T14:57:19;14.70;;;10.00;;
55545;SDS011;44768;50.298;127.520;2022-08-30T15:02:20;16.90;;;12.68;;
55545;SDS011;44768;50.298;127.520;2022-08-30T15:07:21;18.48;;;11.35;;
55545;SDS011;44768;50.298;127.520;2022-08-30T15:12:22;20.17;;;9.20;;
55545;SDS011;44768;50.298;127.520;2022-08-30T15:17:24;15.98;;;8.02;;
55545;SDS011;44768;50.298;127.520;2022-08-30T15:22:25;12.18;;;7.38;;
55545;SDS011;44768;50.298;127.520;2022-08-30T15:27:26;10.70;;;6.45;;
55545;SDS011;44768;50.298;127.520;2022-08-30T15:32:28;16.05;;;6.65;;
55545;SDS011;44768;50.298;127.520;2022-08-30T15:37:29;11.13;;;6.40;;
55545;SDS011;44768;50.298;127.520;2022-08-30T15:42:31;13.85;;;7.05;;
55545;SDS011;44768;50.298;127.520;2022-08-30T15:47:33;6.82;;;5.22;;
55545;SDS011;44768;50.298;127.520;2022-08-30T15:52:34;12.63;;;5.93;;
55545;SDS011;44768;50.298;127.520;2022-08-30T15:57:36;10.15;;;6.13;;
55545;SDS011;44768;50.298;127.520;2022-08-30T16:02:37;9.25;;;5.95;;
55545;SDS011;44768;50.298;127.520;2022-08-30T16:07:38;10.32;;;5.75;;
55545;SDS011;44768;50.298;127.520;2022-08-30T16:12:39;11.65;;;5.43;;
55545;SDS011;44768;50.298;127.520;2022-08-30T16:17:41;10.77;;;5.30;;
55545;SDS011;44768;50.298;127.520;2022-08-30T16:22:45;11.85;;;5.35;;
55545;SDS011;44768;50.298;127.520;2022-08-30T16:32:48;8.05;;;5.10;;
55545;SDS011;44768;50.298;127.520;2022-08-30T16:37:49;13.05;;;5.70;;
55545;SDS011;44768;50.298;127.520;2022-08-30T16:42:51;9.02;;;6.25;;
55545;SDS011;44768;50.298;127.520;2022-08-30T16:47:52;13.00;;;6.57;;
55545;SDS011;44768;50.298;127.520;2022-08-30T16:52:53;12.27;;;7.90;;
55545;SDS011;44768;50.298;127.520;2022-08-30T16:57:55;13.43;;;7.72;;
55545;SDS011;44768;50.298;127.520;2022-08-30T17:02:56;13.50;;;8.98;;
55545;SDS011;44768;50.298;127.520;2022-08-30T17:07:57;16.08;;;10.07;;
55545;SDS011;44768;50.298;127.520;2022-08-30T17:12:58;16.70;;;9.52;;
55545;SDS011;44768;50.298;127.520;2022-08-30T17:18:00;16.50;;;9.70;;
55545;SDS011;44768;50.298;127.520;2022-08-30T17:23:01;15.32;;;9.63;;
55545;SDS011;44768;50.298;127.520;2022-08-30T17:28:03;19.02;;;9.65;;
55545;SDS011;44768;50.298;127.520;2022-08-30T17:33:04;16.77;;;9.10;;
55545;SDS011;44768;50.298;127.520;2022-08-30T17:38:06;13.38;;;8.40;;
55545;SDS011;44768;50.298;127.520;2022-08-30T17:43:08;14.00;;;9.45;;
55545;SDS011;44768;50.298;127.520;2022-08-30T17:53:10;13.13;;;8.95;;
55545;SDS011;44768;50.298;127.520;2022-08-30T17:58:11;15.18;;;9.15;;
55545;SDS011;44768;50.298;127.520;2022-08-30T18:03:12;19.27;;;8.90;;
55545;SDS011;44768;50.298;127.520;2022-08-30T18:08:13;16.58;;;9.43;;
55545;SDS011;44768;50.298;127.520;2022-08-30T18:13:15;14.93;;;9.90;;
55545;SDS011;44768;50.298;127.520;2022-08-30T18:18:16;19.52;;;10.13;;
55545;SDS011;44768;50.298;127.520;2022-08-30T18:23:17;19.15;;;9.35;;
55545;SDS011;44768;50.298;127.520;2022-08-30T18:28:18;17.13;;;10.13;;
55545;SDS011;44768;50.298;127.520;2022-08-30T18:33:20;20.10;;;11.07;;
55545;SDS011;44768;50.298;127.520;2022-08-30T18:38:24;17.42;;;11.20;;
55545;SDS011;44768;50.298;127.520;2022-08-30T18:43:28;22.85;;;11.80;;
55545;SDS011;44768;50.298;127.520;2022-08-30T18:48:30;33.13;;;12.77;;
55545;SDS011;44768;50.298;127.520;2022-08-30T18:53:32;21.55;;;12.05;;
55545;SDS011;44768;50.298;127.520;2022-08-30T18:58:35;23.55;;;11.20;;
55545;SDS011;44768;50.298;127.520;2022-08-30T19:03:36;21.20;;;12.05;;
55545;SDS011;44768;50.298;127.520;2022-08-30T19:08:38;26.10;;;11.77;;
55545;SDS011;44768;50.298;127.520;2022-08-30T19:13:39;20.80;;;11.93;;
55545;SDS011;44768;50.298;127.520;2022-08-30T19:18:41;21.67;;;12.38;;
55545;SDS011;44768;50.298;127.520;2022-08-30T19:23:42;23.98;;;11.60;;
55545;SDS011;44768;50.298;127.520;2022-08-30T19:28:45;31.67;;;13.45;;
55545;SDS011;44768;50.298;127.520;2022-08-30T19:33:47;18.75;;;11.52;;
55545;SDS011;44768;50.298;127.520;2022-08-30T19:43:49;19.65;;;11.75;;
55545;SDS011;44768;50.298;127.520;2022-08-30T19:48:50;22.70;;;12.57;;
55545;SDS011;44768;50.298;127.520;2022-08-30T19:58:53;25.60;;;11.77;;
55545;SDS011;44768;50.298;127.520;2022-08-30T20:03:56;17.85;;;12.18;;
55545;SDS011;44768;50.298;127.520;2022-08-30T20:09:02;22.33;;;12.38;;
55545;SDS011;44768;50.298;127.520;2022-08-30T20:19:05;23.45;;;11.88;;
55545;SDS011;44768;50.298;127.520;2022-08-30T20:24:07;23.90;;;11.85;;
55545;SDS011;44768;50.298;127.520;2022-08-30T20:29:08;21.38;;;12.30;;
55545;SDS011;44768;50.298;127.520;2022-08-30T20:34:10;41.92;;;13.10;;
55545;SDS011;44768;50.298;127.520;2022-08-30T20:39:11;29.27;;;12.38;;
55545;SDS011;44768;50.298;127.520;2022-08-30T20:44:12;23.60;;;12.32;;
55545;SDS011;44768;50.298;127.520;2022-08-30T20:49:15;32.45;;;12.38;;
55545;SDS011;44768;50.298;127.520;2022-08-30T20:54:17;41.50;;;12.88;;
55545;SDS011;44768;50.298;127.520;2022-08-30T20:59:18;47.05;;;13.63;;
55545;SDS011;44768;50.298;127.520;2022-08-30T21:04:19;40.80;;;12.38;;
55545;SDS011;44768;50.298;127.520;2022-08-30T21:09:20;76.43;;;14.85;;
55545;SDS011;44768;50.298;127.520;2022-08-30T21:14:21;70.10;;;14.40;;
55545;SDS011;44768;50.298;127.520;2022-08-30T21:19:23;39.30;;;12.20;;
55545;SDS011;44768;50.298;127.520;2022-08-30T21:24:24;46.15;;;12.40;;
55545;SDS011;44768;50.298;127.520;2022-08-30T21:29:26;44.75;;;11.23;;
55545;SDS011;44768;50.298;127.520;2022-08-30T21:34:28;27.23;;;9.70;;
55545;SDS011;44768;50.298;127.520;2022-08-30T21:44:30;27.92;;;8.68;;
55545;SDS011;44768;50.298;127.520;2022-08-30T21:54:33;62.15;;;10.55;;
55545;SDS011;44768;50.298;127.520;2022-08-30T21:59:34;42.45;;;10.40;;
55545;SDS011;44768;50.298;127.520;2022-08-30T22:04:36;63.67;;;11.13;;
55545;SDS011;44768;50.298;127.520;2022-08-30T22:09:37;43.35;;;10.40;;
55545;SDS011;44768;50.298;127.520;2022-08-30T22:14:39;65.40;;;11.18;;
55545;SDS011;44768;50.298;127.520;2022-08-30T22:19:40;31.40;;;10.95;;
55545;SDS011;44768;50.298;127.520;2022-08-30T22:24:42;22.65;;;10.75;;
55545;SDS011;44768;50.298;127.520;2022-08-30T22:29:43;30.48;;;10.15;;
55545;SDS011;44768;50.298;127.520;2022-08-30T22:34:45;18.27;;;8.95;;
55545;SDS011;44768;50.298;127.520;2022-08-30T22:39:48;25.80;;;9.23;;
55545;SDS011;44768;50.298;127.520;2022-08-30T22:44:50;17.88;;;6.95;;
55545;SDS011;44768;50.298;127.520;2022-08-30T22:49:52;13.68;;;6.78;;
55545;SDS011;44768;50.298;127.520;2022-08-30T22:54:54;12.30;;;6.55;;
55545;SDS011;44768;50.298;127.520;2022-08-30T22:59:55;13.82;;;6.78;;
55545;SDS011;44768;50.298;127.520;2022-08-30T23:04:56;13.55;;;7.03;;
55545;SDS011;44768;50.298;127.520;2022-08-30T23:09:57;20.42;;;7.03;;
55545;SDS011;44768;50.298;127.520;2022-08-30T23:14:59;16.83;;;7.43;;
55545;SDS011;44768;50.298;127.520;2022-08-30T23:20:00;17.48;;;7.05;;
55545;SDS011;44768;50.298;127.520;2022-08-30T23:25:01;14.52;;;6.65;;
55545;SDS011;44768;50.298;127.520;2022-08-30T23:30:21;12.50;;;6.03;;
55545;SDS011;44768;50.298;127.520;2022-08-30T23:35:41;8.10;;;6.75;;
55545;SDS011;44768;50.298;127.520;2022-08-30T23:41:00;11.18;;;5.68;;
55545;SDS011;44768;50.298;127.520;2022-08-30T23:46:20;11.23;;;5.80;;
55545;SDS011;44768;50.298;127.520;2022-08-30T23:51:40;18.50;;;5.90;;
55545;SDS011;44768;50.298;127.520;2022-08-30T23:57:00;13.98;;;5.20;;
